createdAt,value
2022-12-24T00:01:06.700Z,80.69
2022-12-24T00:03:34.545Z,80.76
2022-12-24T00:06:05.853Z,80.58
2022-12-24T00:08:32.938Z,80.94
2022-12-24T00:10:59.853Z,80.66
2022-12-24T00:13:26.561Z,80.65
2022-12-24T00:15:53.223Z,80.67
2022-12-24T00:18:19.908Z,80.34
2022-12-24T00:20:49.822Z,80.88
2022-12-24T00:23:17.436Z,80.61
2022-12-24T00:25:44.759Z,80.27
2022-12-24T00:28:12.762Z,80.75
2022-12-24T00:30:40.367Z,80.53
2022-12-24T00:33:07.166Z,80.40
2022-12-24T00:35:34.950Z,80.83
2022-12-24T00:38:01.725Z,80.78
2022-12-24T00:40:28.358Z,80.58
2022-12-24T00:42:55.019Z,80.63
2022-12-24T00:45:22.083Z,80.59
2022-12-24T00:47:49.158Z,80.26
2022-12-24T00:50:15.951Z,80.80
2022-12-24T00:52:42.597Z,81.01
2022-12-24T00:55:09.777Z,80.45
2022-12-24T00:57:36.515Z,80.83
2022-12-24T01:00:04.957Z,80.44
2022-12-24T01:02:31.779Z,80.92
2022-12-24T01:05:10.814Z,81.06
2022-12-24T01:07:39.255Z,81.21
2022-12-24T01:10:06.662Z,81.22
2022-12-24T01:12:33.559Z,80.87
2022-12-24T01:15:00.289Z,80.99
2022-12-24T01:17:28.907Z,81.06
2022-12-24T01:19:55.641Z,81.00
2022-12-24T01:22:22.355Z,80.78
2022-12-24T01:24:49.119Z,80.66
2022-12-24T01:27:15.828Z,81.02
2022-12-24T01:29:42.480Z,81.26
2022-12-24T01:32:09.308Z,81.56
2022-12-24T01:34:36.451Z,81.25
2022-12-24T01:37:03.343Z,81.37
2022-12-24T01:39:30.094Z,81.14
2022-12-24T01:42:15.795Z,81.53
2022-12-24T01:44:44.163Z,81.05
2022-12-24T01:47:15.943Z,81.10
2022-12-24T01:49:47.347Z,81.18
2022-12-24T01:52:20.238Z,81.53
2022-12-24T01:55:01.804Z,81.33
2022-12-24T01:57:34.685Z,81.41
2022-12-24T02:00:07.681Z,81.32
2022-12-24T02:02:34.987Z,81.64
2022-12-24T02:05:21.907Z,81.59
2022-12-24T02:07:49.547Z,80.89
2022-12-24T02:10:17.006Z,81.18
2022-12-24T02:12:45.405Z,81.12
2022-12-24T02:15:18.215Z,81.45
2022-12-24T02:18:02.964Z,80.89
2022-12-24T02:20:57.520Z,81.39
2022-12-24T02:23:39.027Z,81.18
2022-12-24T02:26:27.117Z,81.22
2022-12-24T02:29:28.664Z,80.90
2022-12-24T02:32:03.737Z,80.99
2022-12-24T02:34:33.156Z,81.04
2022-12-24T02:37:12.378Z,80.82
2022-12-24T02:39:52.676Z,81.50
2022-12-24T02:42:26.296Z,80.75
2022-12-24T02:45:07.103Z,81.00
2022-12-24T02:47:35.387Z,81.24
2022-12-24T02:50:04.435Z,80.87
2022-12-24T02:52:36.814Z,81.77
2022-12-24T02:55:07.659Z,81.57
2022-12-24T02:57:37.117Z,81.31
2022-12-24T03:00:18.309Z,81.43
2022-12-24T03:03:08.039Z,81.56
2022-12-24T03:06:02.100Z,81.48
2022-12-24T03:08:33.827Z,80.97
2022-12-24T03:11:10.923Z,81.73
2022-12-24T03:13:38.957Z,81.38
2022-12-24T03:16:13.855Z,81.44
2022-12-24T03:18:44.517Z,81.84
2022-12-24T03:21:18.111Z,81.10
2022-12-24T03:23:45.063Z,81.27
2022-12-24T03:26:14.664Z,80.93
2022-12-24T03:28:43.254Z,82.02
2022-12-24T03:31:11.098Z,81.94
2022-12-24T03:33:38.150Z,81.55
2022-12-24T03:36:06.227Z,82.03
2022-12-24T03:38:33.068Z,82.04
2022-12-24T03:41:00.058Z,81.48
2022-12-24T03:43:26.746Z,81.24
2022-12-24T03:45:53.477Z,81.68
2022-12-24T03:48:20.182Z,81.46
2022-12-24T03:50:46.935Z,80.91
2022-12-24T03:53:13.596Z,81.26
2022-12-24T03:55:40.443Z,80.87
2022-12-24T03:58:07.246Z,81.42
2022-12-24T04:00:33.911Z,81.06
2022-12-24T04:03:00.621Z,81.35
2022-12-24T04:05:27.383Z,81.20
2022-12-24T04:07:54.087Z,81.50
2022-12-24T04:10:20.813Z,81.13
2022-12-24T04:12:47.463Z,80.78
2022-12-24T04:15:14.277Z,80.69
2022-12-24T04:17:40.993Z,80.77
2022-12-24T04:20:08.348Z,81.32
2022-12-24T04:22:35.015Z,81.43
2022-12-24T04:25:01.669Z,81.25
2022-12-24T04:27:30.710Z,80.46
2022-12-24T04:29:58.016Z,81.28
2022-12-24T04:32:26.393Z,80.76
2022-12-24T04:34:53.167Z,80.97
2022-12-24T04:37:19.846Z,80.71
2022-12-24T04:39:46.533Z,80.79
2022-12-24T04:42:13.193Z,80.51
2022-12-24T04:44:39.879Z,80.72
2022-12-24T04:47:06.559Z,81.12
2022-12-24T04:49:33.223Z,80.67
2022-12-24T04:51:59.894Z,80.34
2022-12-24T04:54:26.609Z,80.11
2022-12-24T04:56:53.282Z,80.44
2022-12-24T04:59:19.952Z,80.60
2022-12-24T05:01:46.668Z,81.06
2022-12-24T05:04:13.429Z,80.63
2022-12-24T05:06:40.110Z,81.58
2022-12-24T05:09:06.858Z,81.16
2022-12-24T05:11:33.542Z,80.91
2022-12-24T05:14:00.236Z,81.60
2022-12-24T05:16:27.005Z,80.83
2022-12-24T05:18:54.167Z,81.15
2022-12-24T05:21:23.464Z,80.96
2022-12-24T05:24:09.761Z,81.20
2022-12-24T05:27:02.782Z,81.29
2022-12-24T05:29:29.442Z,80.96
2022-12-24T05:31:56.064Z,81.45
2022-12-24T05:34:22.717Z,81.59
2022-12-24T05:36:49.400Z,81.68
2022-12-24T05:39:18.085Z,81.57
2022-12-24T05:41:47.531Z,81.10
2022-12-24T05:44:16.245Z,80.72
2022-12-24T05:46:43.805Z,81.32
2022-12-24T05:49:10.748Z,81.60
2022-12-24T05:51:37.505Z,80.74
2022-12-24T05:54:04.729Z,81.48
2022-12-24T05:56:31.565Z,81.64
2022-12-24T05:58:58.800Z,80.70
2022-12-24T06:01:26.370Z,80.87
2022-12-24T06:03:53.801Z,81.36
2022-12-24T06:06:23.948Z,81.02
2022-12-24T06:08:52.733Z,81.08
2022-12-24T06:11:25.209Z,81.22
2022-12-24T06:13:52.910Z,80.97
2022-12-24T06:16:21.184Z,80.98
2022-12-24T06:18:47.995Z,81.79
2022-12-24T06:21:15.484Z,80.95
2022-12-24T06:23:43.977Z,81.03
2022-12-24T06:26:17.539Z,81.61
2022-12-24T06:28:45.307Z,80.81
2022-12-24T06:31:14.521Z,81.63
2022-12-24T06:33:41.591Z,81.46
2022-12-24T06:36:16.640Z,80.86
2022-12-24T06:38:44.128Z,81.25
2022-12-24T06:41:10.879Z,81.14
2022-12-24T06:43:37.663Z,80.92
2022-12-24T06:46:04.896Z,81.25
2022-12-24T06:48:31.810Z,81.23
2022-12-24T06:50:58.490Z,80.85
2022-12-24T06:53:25.447Z,80.87
2022-12-24T06:55:52.130Z,81.24
2022-12-24T06:58:18.803Z,80.98
2022-12-24T07:00:47.741Z,80.77
2022-12-24T07:03:14.511Z,81.05
2022-12-24T07:05:41.338Z,80.88
2022-12-24T07:08:08.942Z,80.95
2022-12-24T07:10:35.645Z,81.18
2022-12-24T07:13:02.299Z,80.68
2022-12-24T07:15:28.956Z,81.34
2022-12-24T07:17:55.676Z,80.34
2022-12-24T07:20:22.510Z,81.02
2022-12-24T07:22:49.189Z,81.48
2022-12-24T07:25:15.959Z,80.83
2022-12-24T07:27:42.775Z,80.88
2022-12-24T07:30:10.800Z,81.54
2022-12-24T07:32:37.573Z,81.41
2022-12-24T07:35:04.480Z,81.09
2022-12-24T07:37:31.132Z,81.40
2022-12-24T07:39:57.860Z,80.89
2022-12-24T07:42:24.716Z,81.23
2022-12-24T07:44:51.551Z,81.82
2022-12-24T07:47:18.246Z,80.96
2022-12-24T07:49:44.928Z,80.94
2022-12-24T07:52:11.614Z,81.55
2022-12-24T07:54:38.345Z,81.53
2022-12-24T07:57:05.122Z,81.96
2022-12-24T07:59:31.781Z,81.64
2022-12-24T08:01:58.741Z,82.15
2022-12-24T08:04:25.541Z,81.70
2022-12-24T08:06:52.269Z,82.40
2022-12-24T08:09:19.317Z,82.21
2022-12-24T08:11:51.721Z,82.13
2022-12-24T08:14:19.455Z,81.27
2022-12-24T08:16:46.189Z,82.03
2022-12-24T08:19:13.008Z,82.03
2022-12-24T08:21:39.655Z,81.53
2022-12-24T08:24:06.703Z,81.64
2022-12-24T08:26:33.363Z,81.21
2022-12-24T08:29:00.115Z,81.85
2022-12-24T08:31:26.820Z,81.18
2022-12-24T08:33:53.514Z,81.52
2022-12-24T08:36:20.247Z,81.29
2022-12-24T08:38:46.892Z,82.14
2022-12-24T08:41:13.612Z,81.33
2022-12-24T08:43:40.268Z,81.35
2022-12-24T08:46:07.120Z,81.60
2022-12-24T08:48:34.001Z,81.51
2022-12-24T08:51:00.700Z,80.96
2022-12-24T08:53:27.367Z,81.90
2022-12-24T08:56:01.788Z,82.01
2022-12-24T08:58:29.731Z,81.50
2022-12-24T09:00:56.490Z,81.88
2022-12-24T09:03:27.508Z,81.41
2022-12-24T09:05:55.144Z,81.73
2022-12-24T09:08:21.874Z,81.67
2022-12-24T09:10:48.562Z,82.05
2022-12-24T09:13:15.232Z,81.47
2022-12-24T09:15:41.879Z,81.45
2022-12-24T09:18:08.573Z,82.04
2022-12-24T09:20:35.243Z,81.84
2022-12-24T09:23:01.955Z,82.38
2022-12-24T09:25:28.609Z,81.90
2022-12-24T09:27:55.280Z,82.45
2022-12-24T09:30:22.102Z,82.04
2022-12-24T09:32:51.810Z,82.62
2022-12-24T09:35:18.545Z,82.04
2022-12-24T09:37:45.265Z,82.46
2022-12-24T09:40:25.117Z,82.06
2022-12-24T09:42:55.037Z,81.95
2022-12-24T09:45:36.684Z,82.17
2022-12-24T09:48:28.295Z,82.04
2022-12-24T09:51:09.441Z,81.73
2022-12-24T09:54:15.598Z,81.94
2022-12-24T09:56:46.577Z,82.32
2022-12-24T09:59:25.702Z,81.52
2022-12-24T10:01:55.013Z,81.68
2022-12-24T10:04:27.015Z,82.38
2022-12-24T10:07:31.561Z,82.45
2022-12-24T10:10:08.086Z,82.38
2022-12-24T10:12:49.900Z,82.25
2022-12-24T10:15:27.221Z,82.08
2022-12-24T10:18:19.765Z,82.27
2022-12-24T10:21:04.768Z,82.18
2022-12-24T10:23:46.700Z,81.95
2022-12-24T10:26:25.879Z,82.00
2022-12-24T10:28:58.231Z,82.13
2022-12-24T10:31:32.556Z,82.33
2022-12-24T10:34:06.002Z,81.68
2022-12-24T10:36:33.337Z,81.98
2022-12-24T10:39:00.438Z,82.07
2022-12-24T10:41:30.680Z,81.76
2022-12-24T10:43:59.263Z,82.27
2022-12-24T10:46:36.657Z,82.28
2022-12-24T10:49:12.879Z,82.35
2022-12-24T10:51:51.223Z,82.12
2022-12-24T10:54:27.474Z,82.46
2022-12-24T10:56:59.890Z,82.21
2022-12-24T10:59:35.424Z,82.02
2022-12-24T11:02:02.763Z,82.48
2022-12-24T11:04:32.600Z,82.65
2022-12-24T11:07:05.486Z,82.40
2022-12-24T11:09:41.289Z,82.21
2022-12-24T11:12:19.100Z,82.07
2022-12-24T11:14:45.864Z,81.95
2022-12-24T11:17:23.376Z,82.21
2022-12-24T11:19:50.936Z,81.85
2022-12-24T11:22:22.973Z,81.64
2022-12-24T11:25:18.328Z,82.34
2022-12-24T11:27:49.816Z,82.12
2022-12-24T11:30:16.547Z,82.14
2022-12-24T11:32:48.968Z,81.38
2022-12-24T11:35:24.322Z,81.17
2022-12-24T11:38:25.235Z,81.38
2022-12-24T11:41:12.449Z,81.56
2022-12-24T11:43:48.575Z,81.34
2022-12-24T11:46:27.498Z,81.50
2022-12-24T11:49:18.093Z,81.46
2022-12-24T11:52:03.825Z,81.73
2022-12-24T11:54:37.108Z,81.66
2022-12-24T11:57:04.260Z,81.66
2022-12-24T11:59:36.794Z,81.57
2022-12-24T12:02:27.146Z,82.06
2022-12-24T12:05:05.644Z,82.02
2022-12-24T12:07:36.847Z,82.19
2022-12-24T12:10:07.992Z,82.08
2022-12-24T12:12:40.228Z,81.57
2022-12-24T12:15:15.831Z,81.92
2022-12-24T12:17:50.633Z,81.78
2022-12-24T12:20:32.979Z,81.69
2022-12-24T12:23:15.791Z,81.61
2022-12-24T12:25:51.358Z,81.79
2022-12-24T12:28:36.445Z,82.26
2022-12-24T12:31:16.403Z,82.03
2022-12-24T12:33:58.096Z,81.49
2022-12-24T12:36:39.887Z,81.40
2022-12-24T12:39:06.689Z,81.37
2022-12-24T12:41:56.328Z,81.43
2022-12-24T12:44:49.400Z,81.66
2022-12-24T12:47:18.708Z,81.16
2022-12-24T12:49:48.380Z,81.42
2022-12-24T12:52:47.338Z,81.29
2022-12-24T12:55:24.885Z,81.46
2022-12-24T12:57:58.036Z,81.34
2022-12-24T13:00:24.785Z,81.25
2022-12-24T13:03:00.504Z,81.51
2022-12-24T13:06:06.033Z,81.23
2022-12-24T13:09:05.034Z,81.45
2022-12-24T13:11:43.520Z,81.60
2022-12-24T13:14:28.735Z,81.59
2022-12-24T13:17:04.604Z,81.51
2022-12-24T13:19:38.468Z,81.42
2022-12-24T13:22:05.879Z,81.53
2022-12-24T13:24:33.855Z,81.65
2022-12-24T13:27:20.920Z,81.53
2022-12-24T13:30:09.540Z,81.57
2022-12-24T13:32:40.021Z,81.28
2022-12-24T13:35:18.917Z,81.51
2022-12-24T13:37:46.947Z,81.36
2022-12-24T13:40:17.649Z,82.00
2022-12-24T13:42:59.460Z,81.62
2022-12-24T13:45:29.178Z,81.90
2022-12-24T13:47:57.515Z,81.20
2022-12-24T13:50:43.973Z,81.40
2022-12-24T13:53:28.692Z,81.57
2022-12-24T13:55:57.749Z,81.36
2022-12-24T13:58:25.960Z,81.68
2022-12-24T14:01:10.846Z,81.68
2022-12-24T14:03:42.391Z,81.37
2022-12-24T14:06:23.239Z,81.33
2022-12-24T14:08:53.595Z,81.32
2022-12-24T14:11:25.808Z,81.28
2022-12-24T14:14:03.268Z,81.39
2022-12-24T14:16:31.982Z,81.25
2022-12-24T14:18:58.847Z,81.34
2022-12-24T14:21:33.375Z,81.17
2022-12-24T14:24:04.026Z,81.23
2022-12-24T14:26:35.422Z,81.31
2022-12-24T14:29:19.885Z,81.19
2022-12-24T14:31:54.883Z,81.39
2022-12-24T14:34:21.742Z,81.42
2022-12-24T14:36:50.389Z,81.31
2022-12-24T14:39:29.759Z,81.48
2022-12-24T14:42:22.854Z,81.31
2022-12-24T14:45:31.130Z,81.53
2022-12-24T14:48:25.817Z,81.32
2022-12-24T14:51:01.283Z,81.24
2022-12-24T14:53:43.053Z,81.63
2022-12-24T14:56:18.116Z,81.21
2022-12-24T14:58:46.894Z,81.34
2022-12-24T15:01:28.788Z,81.41
2022-12-24T15:04:10.892Z,81.04
2022-12-24T15:06:41.716Z,80.98
2022-12-24T15:09:20.575Z,81.36
2022-12-24T15:11:50.613Z,81.56
2022-12-24T15:14:18.837Z,81.14
2022-12-24T15:16:54.603Z,81.67
2022-12-24T15:19:26.984Z,81.14
2022-12-24T15:21:55.048Z,81.66
2022-12-24T15:24:32.929Z,81.16
2022-12-24T15:27:03.084Z,81.68
2022-12-24T15:29:32.546Z,81.62
2022-12-24T15:32:01.414Z,81.52
2022-12-24T15:34:40.314Z,81.49
2022-12-24T15:37:25.400Z,81.23
2022-12-24T15:39:57.144Z,81.67
2022-12-24T15:42:25.111Z,81.02
2022-12-24T15:45:05.992Z,81.65
2022-12-24T15:47:38.660Z,81.51
2022-12-24T15:50:26.819Z,80.85
2022-12-24T15:53:20.482Z,81.37
2022-12-24T15:55:42.446Z,81.33
2022-12-24T15:58:27.955Z,80.86
2022-12-24T16:01:10.082Z,81.15
2022-12-24T16:03:39.213Z,81.59
2022-12-24T16:06:11.924Z,81.40
2022-12-24T16:08:40.813Z,81.78
2022-12-24T16:11:28.535Z,81.46
2022-12-24T16:13:57.881Z,81.60
2022-12-24T16:16:42.792Z,80.85
2022-12-24T16:19:37.628Z,81.35
2022-12-24T16:22:38.876Z,81.82
2022-12-24T16:25:25.622Z,81.28
2022-12-24T16:27:53.075Z,81.07
2022-12-24T16:30:20.771Z,81.71
2022-12-24T16:32:48.704Z,81.47
2022-12-24T16:35:26.518Z,81.39
2022-12-24T16:37:54.165Z,81.64
2022-12-24T16:40:26.871Z,81.22
2022-12-24T16:43:12.984Z,81.37
2022-12-24T16:45:39.804Z,80.77
2022-12-24T16:48:07.408Z,80.84
2022-12-24T16:50:34.665Z,81.32
2022-12-24T16:53:01.330Z,80.66
2022-12-24T16:55:27.989Z,80.33
2022-12-24T16:57:54.702Z,80.87
2022-12-24T17:00:22.927Z,80.80
2022-12-24T17:02:50.778Z,80.53
2022-12-24T17:05:17.994Z,81.05
2022-12-24T17:07:44.844Z,80.96
2022-12-24T17:10:14.269Z,81.17
2022-12-24T17:12:41.377Z,81.00
2022-12-24T17:15:08.627Z,81.37
2022-12-24T17:17:35.386Z,80.46
2022-12-24T17:20:03.329Z,81.12
2022-12-24T17:22:30.636Z,80.76
2022-12-24T17:24:58.252Z,80.91
2022-12-24T17:27:25.036Z,80.42
2022-12-24T17:29:51.814Z,80.48
2022-12-24T17:32:18.789Z,81.17
2022-12-24T17:34:45.673Z,80.66
2022-12-24T17:37:12.500Z,81.12
2022-12-24T17:39:39.178Z,80.83
2022-12-24T17:42:05.927Z,80.93
2022-12-24T17:44:32.702Z,80.90
2022-12-24T17:46:59.819Z,80.96
2022-12-24T17:49:26.613Z,80.95
2022-12-24T17:51:53.348Z,81.11
2022-12-24T17:54:20.001Z,81.91
2022-12-24T17:56:46.685Z,82.12
2022-12-24T17:59:14.111Z,82.23
2022-12-24T18:01:41.062Z,82.00
2022-12-24T18:04:07.853Z,81.40
2022-12-24T18:06:34.627Z,81.45
2022-12-24T18:09:01.388Z,81.11
2022-12-24T18:11:32.791Z,81.23
2022-12-24T18:14:01.337Z,81.35
2022-12-24T18:16:35.855Z,81.61
2022-12-24T18:19:04.416Z,81.25
2022-12-24T18:21:33.173Z,81.63
2022-12-24T18:24:00.416Z,81.17
2022-12-24T18:26:29.194Z,81.46
2022-12-24T18:28:57.904Z,81.60
2022-12-24T18:31:26.843Z,82.18
2022-12-24T18:33:55.900Z,81.44
2022-12-24T18:36:23.288Z,81.47
2022-12-24T18:38:50.351Z,81.35
2022-12-24T18:41:20.292Z,81.38
2022-12-24T18:43:48.231Z,81.90
2022-12-24T18:46:17.422Z,81.25
2022-12-24T18:48:44.307Z,81.77
2022-12-24T18:51:11.259Z,81.12
2022-12-24T18:53:38.742Z,81.48
2022-12-24T18:56:07.746Z,81.53
2022-12-24T18:58:34.433Z,80.90
2022-12-24T19:01:01.199Z,81.58
2022-12-24T19:03:27.984Z,81.00
2022-12-24T19:06:00.352Z,81.66
2022-12-24T19:08:56.492Z,81.38
2022-12-24T19:11:13.961Z,81.89
2022-12-24T19:13:40.692Z,82.28
2022-12-24T19:16:08.302Z,81.18
2022-12-24T19:18:35.548Z,81.99
2022-12-24T19:21:07.144Z,81.81
2022-12-24T19:23:34.459Z,81.87
2022-12-24T19:26:01.237Z,81.58
2022-12-24T19:28:29.488Z,81.95
2022-12-24T19:30:56.270Z,81.60
2022-12-24T19:33:22.909Z,81.98
2022-12-24T19:35:49.638Z,81.25
2022-12-24T19:38:16.312Z,81.62
2022-12-24T19:40:42.994Z,81.97
2022-12-24T19:43:09.712Z,82.10
2022-12-24T19:45:36.391Z,82.04
2022-12-24T19:48:03.254Z,81.92
2022-12-24T19:50:30.072Z,82.15
2022-12-24T19:52:56.952Z,81.84
2022-12-24T19:55:23.678Z,82.42
2022-12-24T19:57:52.634Z,82.80
2022-12-24T20:00:19.729Z,82.65
2022-12-24T20:02:46.474Z,83.09
2022-12-24T20:05:13.146Z,82.46
2022-12-24T20:07:39.791Z,82.73
2022-12-24T20:10:07.168Z,82.80
2022-12-24T20:12:34.349Z,82.67
2022-12-24T20:15:01.110Z,82.48
2022-12-24T20:17:27.820Z,82.13
2022-12-24T20:19:54.695Z,82.13
2022-12-24T20:22:21.351Z,83.07
2022-12-24T20:24:48.033Z,82.99
2022-12-24T20:27:14.746Z,82.73
2022-12-24T20:29:41.501Z,83.25
2022-12-24T20:32:08.286Z,83.31
2022-12-24T20:34:35.154Z,82.34
2022-12-24T20:37:01.857Z,83.16
2022-12-24T20:39:28.567Z,83.18
2022-12-24T20:41:55.262Z,82.66
2022-12-24T20:44:21.997Z,82.90
2022-12-24T20:46:48.705Z,82.72
2022-12-24T20:49:15.436Z,83.49
2022-12-24T20:51:42.101Z,82.95
2022-12-24T20:54:10.849Z,83.28
2022-12-24T20:56:37.889Z,82.76
2022-12-24T20:59:04.752Z,83.31
2022-12-24T21:01:31.650Z,82.66
2022-12-24T21:04:00.330Z,83.16
2022-12-24T21:06:27.104Z,83.42
2022-12-24T21:08:54.135Z,83.15
2022-12-24T21:11:40.782Z,83.17
2022-12-24T21:14:07.550Z,83.18
2022-12-24T21:16:36.581Z,83.07
2022-12-24T21:19:04.761Z,83.81
2022-12-24T21:21:31.750Z,83.14
2022-12-24T21:23:58.457Z,83.88
2022-12-24T21:26:25.132Z,83.08
2022-12-24T21:28:53.242Z,83.20
2022-12-24T21:31:20.233Z,83.34
2022-12-24T21:33:47.527Z,83.61
2022-12-24T21:36:14.782Z,83.65
2022-12-24T21:38:41.562Z,83.76
2022-12-24T21:41:17.085Z,83.81
2022-12-24T21:43:45.011Z,83.56
2022-12-24T21:46:14.869Z,83.95
2022-12-24T21:49:00.321Z,83.87
2022-12-24T21:51:28.269Z,83.46
2022-12-24T21:54:14.326Z,83.75
2022-12-24T21:56:59.991Z,83.56
2022-12-24T21:59:27.554Z,83.82
2022-12-24T22:01:55.366Z,83.33
2022-12-24T22:04:22.356Z,83.53
2022-12-24T22:07:07.817Z,83.56
2022-12-24T22:09:53.360Z,83.70
2022-12-24T22:12:20.110Z,83.44
2022-12-24T22:14:46.936Z,83.48
2022-12-24T22:17:13.639Z,83.35
2022-12-24T22:19:41.345Z,83.28
2022-12-24T22:22:08.015Z,83.16
2022-12-24T22:24:34.666Z,83.61
2022-12-24T22:27:01.361Z,83.66
2022-12-24T22:29:28.002Z,83.39
2022-12-24T22:31:54.718Z,83.55
2022-12-24T22:34:21.442Z,83.43
2022-12-24T22:36:48.121Z,83.38
2022-12-24T22:39:14.897Z,83.41
2022-12-24T22:41:41.585Z,83.99
2022-12-24T22:44:08.265Z,83.59
2022-12-24T22:46:34.983Z,83.42
2022-12-24T22:49:01.754Z,83.71
2022-12-24T22:51:28.441Z,83.79
2022-12-24T22:53:55.098Z,83.34
2022-12-24T22:56:23.104Z,83.75
2022-12-24T22:58:54.196Z,83.70
2022-12-24T23:01:40.938Z,83.53
2022-12-24T23:04:08.224Z,83.87
2022-12-24T23:06:35.591Z,83.65
2022-12-24T23:09:04.572Z,83.79
2022-12-24T23:11:31.390Z,83.83
2022-12-24T23:14:16.629Z,83.87
2022-12-24T23:16:43.329Z,83.43
2022-12-24T23:19:10.025Z,83.51
2022-12-24T23:21:37.125Z,83.50
2022-12-24T23:24:04.082Z,84.08
2022-12-24T23:26:30.882Z,83.94
2022-12-24T23:28:57.991Z,83.70
2022-12-24T23:31:25.992Z,83.79
2022-12-24T23:33:53.416Z,83.89
2022-12-24T23:36:21.406Z,83.81
2022-12-24T23:38:48.679Z,83.90
2022-12-24T23:41:17.958Z,83.54
2022-12-24T23:43:45.700Z,83.12
2022-12-24T23:46:17.638Z,83.66
2022-12-24T23:48:46.029Z,83.70
2022-12-24T23:51:16.843Z,83.47
2022-12-24T23:53:43.974Z,83.68
2022-12-24T23:56:12.199Z,83.80
2022-12-24T23:58:40.940Z,83.70
